createdAt,value
2017-08-17T00:00:43.197Z,10
2017-08-17T00:00:52.249Z,10
2017-08-17T00:01:36.713Z,10
2017-08-17T00:01:42.623Z,9
2017-08-17T00:02:32.911Z,8
2017-08-17T00:02:41.252Z,9
2017-08-17T00:03:47.281Z,10
2017-08-17T00:04:52.408Z,10
2017-08-17T00:05:41.521Z,10
2017-08-17T00:05:47.142Z,10
2017-08-17T00:05:56.525Z,10
2017-08-17T00:06:16.484Z,10
2017-08-17T00:06:31.458Z,10
2017-08-17T00:06:36.920Z,10
2017-08-17T00:06:46.559Z,10
2017-08-17T00:07:47.985Z,11
2017-08-17T00:07:56.709Z,8
2017-08-17T00:08:06.612Z,10
2017-08-17T00:08:21.924Z,10
2017-08-17T00:08:27.583Z,9
2017-08-17T00:08:46.790Z,10
2017-08-17T00:08:53.257Z,9
2017-08-17T00:09:51.678Z,10
2017-08-17T00:11:02.120Z,10
2017-08-17T00:11:11.748Z,8
2017-08-17T00:11:18.033Z,10
2017-08-17T00:11:57.457Z,10
2017-08-17T00:12:16.879Z,9
2017-08-17T00:12:51.883Z,10
2017-08-17T00:12:57.528Z,7
2017-08-17T00:13:07.055Z,10
2017-08-17T00:13:13.953Z,6
2017-08-17T00:13:21.968Z,10
2017-08-17T00:13:37.199Z,10
2017-08-17T00:13:52.229Z,10
2017-08-17T00:14:01.795Z,10
2017-08-17T00:14:16.741Z,10
2017-08-17T00:14:26.765Z,10
2017-08-17T00:14:32.294Z,10
2017-08-17T00:14:41.739Z,10
2017-08-17T00:14:47.460Z,7
2017-08-17T00:14:56.795Z,10
2017-08-17T00:15:02.299Z,10
2017-08-17T00:15:11.821Z,10
2017-08-17T00:15:17.267Z,10
2017-08-17T00:15:26.807Z,10
2017-08-17T00:15:32.302Z,10
2017-08-17T00:15:41.793Z,10
2017-08-17T00:15:47.607Z,10
2017-08-17T00:15:56.901Z,10
2017-08-17T00:16:02.667Z,10
2017-08-17T00:16:12.307Z,10
2017-08-17T00:16:22.627Z,10
2017-08-17T00:16:28.403Z,10
2017-08-17T00:16:46.841Z,10
2017-08-17T00:16:52.567Z,10
2017-08-17T00:17:01.844Z,10
2017-08-17T00:17:07.349Z,10
2017-08-17T00:17:16.930Z,10
2017-08-17T00:17:22.404Z,10
2017-08-17T00:17:31.855Z,10
2017-08-17T00:17:37.338Z,10
2017-08-17T00:17:46.880Z,10
2017-08-17T00:17:52.662Z,9
2017-08-17T00:18:01.936Z,10
2017-08-17T00:18:08.439Z,6
2017-08-17T00:18:32.106Z,10
2017-08-17T00:18:44.128Z,10
2017-08-17T00:18:52.423Z,9
2017-08-17T00:19:07.161Z,8
2017-08-17T00:19:26.950Z,10
2017-08-17T00:19:32.466Z,10
2017-08-17T00:19:41.982Z,10
2017-08-17T00:19:47.469Z,10
2017-08-17T00:19:57.142Z,10
2017-08-17T00:20:11.913Z,10
2017-08-17T00:20:17.370Z,6
2017-08-17T00:20:32.756Z,10
2017-08-17T00:20:38.644Z,10
2017-08-17T00:20:56.753Z,10
2017-08-17T00:21:17.298Z,10
2017-08-17T00:21:42.044Z,10
2017-08-17T00:21:47.539Z,10
2017-08-17T00:21:57.044Z,10
2017-08-17T00:22:02.526Z,10
2017-08-17T00:22:21.729Z,8
2017-08-17T00:22:32.228Z,10
2017-08-17T00:22:37.753Z,10
2017-08-17T00:22:47.082Z,10
2017-08-17T00:22:52.621Z,10
2017-08-17T00:23:02.244Z,10
2017-08-17T00:23:08.667Z,10
2017-08-17T00:23:22.086Z,10
2017-08-17T00:23:27.590Z,10
2017-08-17T00:23:37.303Z,8
2017-08-17T00:23:52.328Z,10
2017-08-17T00:24:07.111Z,9
2017-08-17T00:24:13.948Z,10
2017-08-17T00:24:27.307Z,10
2017-08-17T00:24:42.344Z,10
2017-08-17T00:24:47.841Z,10
2017-08-17T00:24:57.164Z,10
2017-08-17T00:25:02.673Z,10
2017-08-17T00:25:13.191Z,10
2017-08-17T00:25:27.369Z,10
2017-08-17T00:25:33.045Z,10
2017-08-17T00:25:42.716Z,10
2017-08-17T00:25:57.276Z,10
2017-08-17T00:26:12.569Z,10
2017-08-17T00:26:18.320Z,10
2017-08-17T00:26:27.288Z,10
2017-08-17T00:26:32.784Z,7
2017-08-17T00:26:42.650Z,10
2017-08-17T00:26:57.421Z,10
2017-08-17T00:27:02.903Z,10
2017-08-17T00:27:16.408Z,9
2017-08-17T00:27:27.672Z,10
2017-08-17T00:27:42.338Z,10
2017-08-17T00:27:47.605Z,7
2017-08-17T00:28:02.037Z,10
2017-08-17T00:28:12.326Z,10
2017-08-17T00:28:17.599Z,8
2017-08-17T00:28:22.860Z,9
2017-08-17T00:28:32.238Z,10
2017-08-17T00:28:37.539Z,10
2017-08-17T00:28:52.109Z,10
2017-08-17T00:29:02.545Z,10
2017-08-17T00:29:17.103Z,10
2017-08-17T00:29:27.166Z,10
2017-08-17T00:29:37.288Z,10
2017-08-17T00:29:42.506Z,10
2017-08-17T00:29:47.739Z,10
2017-08-17T00:29:57.142Z,10
2017-08-17T00:30:07.592Z,10
2017-08-17T00:30:22.345Z,10
2017-08-17T00:30:27.626Z,10
2017-08-17T00:30:32.981Z,10
2017-08-17T00:30:42.316Z,10
2017-08-17T00:30:52.392Z,10
2017-08-17T00:30:57.648Z,10
2017-08-17T00:31:02.960Z,10
2017-08-17T00:31:12.403Z,10
2017-08-17T00:31:17.686Z,9
2017-08-17T00:31:22.978Z,10
2017-08-17T00:31:32.448Z,8
2017-08-17T00:31:37.703Z,10
2017-08-17T00:31:52.235Z,10
2017-08-17T00:32:02.259Z,10
2017-08-17T00:32:12.622Z,10
2017-08-17T00:32:17.839Z,10
2017-08-17T00:32:27.200Z,10
2017-08-17T00:32:37.464Z,10
2017-08-17T00:32:42.619Z,8
2017-08-17T00:32:47.920Z,10
2017-08-17T00:32:57.318Z,10
2017-08-17T00:33:07.626Z,10
2017-08-17T00:33:12.905Z,10
2017-08-17T00:33:22.395Z,7
2017-08-17T00:33:32.600Z,10
2017-08-17T00:33:37.865Z,10
2017-08-17T00:33:52.288Z,10
2017-08-17T00:34:02.608Z,10
2017-08-17T00:34:07.822Z,8
2017-08-17T00:34:22.528Z,10
2017-08-17T00:34:37.379Z,10
2017-08-17T00:34:47.524Z,10
2017-08-17T00:34:52.785Z,10
2017-08-17T00:34:57.989Z,10
2017-08-17T00:35:07.611Z,10
2017-08-17T00:35:12.824Z,10
2017-08-17T00:35:18.024Z,9
2017-08-17T00:35:27.409Z,7
2017-08-17T00:35:37.590Z,10
2017-08-17T00:35:42.796Z,10
2017-08-17T00:35:48.004Z,10
2017-08-17T00:35:57.453Z,10
2017-08-17T00:36:07.632Z,10
2017-08-17T00:36:12.904Z,10
2017-08-17T00:36:27.496Z,10
2017-08-17T00:36:37.442Z,10
2017-08-17T00:36:48.346Z,10
2017-08-17T00:36:57.467Z,10
2017-08-17T00:37:07.551Z,10
2017-08-17T00:37:17.482Z,10
2017-08-17T00:37:27.524Z,10
2017-08-17T00:37:37.490Z,8
2017-08-17T00:37:47.493Z,10
2017-08-17T00:37:57.700Z,10
2017-08-17T00:38:02.903Z,10
2017-08-17T00:38:17.549Z,9
2017-08-17T00:38:27.579Z,10
2017-08-17T00:38:37.702Z,10
2017-08-17T00:38:47.945Z,10
2017-08-17T00:38:53.180Z,9
2017-08-17T00:39:02.627Z,9
2017-08-17T00:39:13.153Z,10
2017-08-17T00:39:18.422Z,10
2017-08-17T00:39:27.696Z,10
2017-08-17T00:39:37.762Z,10
2017-08-17T00:39:47.673Z,10
2017-08-17T00:39:57.837Z,10
2017-08-17T00:40:03.301Z,10
2017-08-17T00:40:12.736Z,10
2017-08-17T00:40:22.785Z,10
2017-08-17T00:40:32.697Z,10
2017-08-17T00:40:42.644Z,10
2017-08-17T00:40:52.883Z,10
2017-08-17T00:40:58.126Z,10
2017-08-17T00:41:03.317Z,10
2017-08-17T00:41:12.981Z,9
2017-08-17T00:41:18.205Z,10
2017-08-17T00:41:23.509Z,9
2017-08-17T00:41:32.958Z,10
2017-08-17T00:41:38.186Z,9
2017-08-17T00:41:43.909Z,9
2017-08-17T00:41:52.899Z,7
2017-08-17T00:41:58.378Z,10
2017-08-17T00:42:07.765Z,10
2017-08-17T00:42:17.926Z,10
2017-08-17T00:42:23.208Z,10
2017-08-17T00:42:37.777Z,8
2017-08-17T00:42:47.750Z,10
2017-08-17T00:42:57.920Z,10
2017-08-17T00:43:07.785Z,10
2017-08-17T00:43:17.797Z,10
2017-08-17T00:43:27.969Z,10
2017-08-17T00:43:33.202Z,9
2017-08-17T00:43:38.699Z,9
2017-08-17T00:43:48.107Z,10
2017-08-17T00:43:53.773Z,10
2017-08-17T00:44:02.969Z,10
2017-08-17T00:44:08.211Z,8
2017-08-17T00:44:14.546Z,10
2017-08-17T00:44:27.868Z,10
2017-08-17T00:44:39.064Z,10
2017-08-17T00:44:44.545Z,7
2017-08-17T00:44:53.499Z,10
2017-08-17T00:45:02.876Z,9
2017-08-17T00:45:12.836Z,10
2017-08-17T00:45:23.066Z,10
2017-08-17T00:45:28.369Z,9
2017-08-17T00:45:42.860Z,10
2017-08-17T00:45:53.306Z,10
2017-08-17T00:45:58.546Z,9
2017-08-17T00:46:07.946Z,9
2017-08-17T00:46:18.127Z,10
2017-08-17T00:46:23.716Z,10
2017-08-17T00:46:48.109Z,10
2017-08-17T00:46:53.301Z,7
2017-08-17T00:47:07.940Z,10
2017-08-17T00:47:18.145Z,10
2017-08-17T00:47:23.188Z,9
2017-08-17T00:47:38.361Z,10
2017-08-17T00:47:43.602Z,10
2017-08-17T00:47:53.002Z,10
2017-08-17T00:48:03.266Z,10
2017-08-17T00:48:08.486Z,10
2017-08-17T00:48:13.786Z,5
2017-08-17T00:48:23.001Z,10
2017-08-17T00:48:33.170Z,10
2017-08-17T00:48:38.427Z,10
2017-08-17T00:48:43.658Z,10
2017-08-17T00:48:53.028Z,10
2017-08-17T00:49:03.085Z,10
2017-08-17T13:55:06.844Z,35
2017-08-17T13:56:10.554Z,41
2017-08-17T13:56:40.132Z,41
2017-08-17T13:56:59.167Z,37
2017-08-17T13:57:35.128Z,37
2017-08-17T13:58:55.517Z,41
2017-08-17T14:00:05.465Z,35
2017-08-17T14:01:13.058Z,36
2017-08-17T14:03:31.917Z,42
2017-08-17T14:04:19.145Z,42
2017-08-17T14:40:53.546Z,47
2017-08-17T14:41:55.842Z,47
2017-08-17T14:42:58.120Z,41
2017-08-17T14:44:00.506Z,47
2017-08-17T14:45:02.810Z,48
2017-08-17T14:46:05.678Z,48
2017-08-17T14:47:08.346Z,46
2017-08-17T14:48:11.020Z,48
2017-08-17T14:49:13.331Z,43
2017-08-17T14:50:15.769Z,48
